This is the latest recevied weather packets stored in our database for station/object YN1JLX-13. If no packets are shown the sender has not sent any weather packets the latest 10 day(s).
| Time | Temp. | Humidity | Pressure | Rain* | Wind** | Luminosity | Snow |
|---|---|---|---|---|---|---|---|
| 1778010310 | 28.33° C | 42% | 1009 hPa | 0 mm | - | - | - |
| 1778009710 | 28.33° C | 38% | 1009 hPa | 0 mm | - | - | - |
| 1778009110 | 27.78° C | 41% | 1010 hPa | 0 mm | - | - | - |
| 1778008509 | 27.78° C | 41% | 1010 hPa | 0 mm | - | - | - |
| 1778007909 | 27.22° C | 41% | 1010 hPa | 0 mm | - | - | - |
| 1778007309 | 27.22° C | 41% | 1010 hPa | 0 mm | - | - | - |
| 1778006709 | 28.33° C | 41% | 1010 hPa | 0 mm | - | - | - |
| 1778006108 | 27.78° C | 41% | 1010 hPa | 0 mm | - | - | - |
| 1778005508 | 28.33° C | 41% | 1011 hPa | 0 mm | - | - | - |
| 1778004907 | 26.11° C | 46% | 1011 hPa | 0 mm | - | - | - |
| 1778004307 | 26.67° C | 46% | 1011 hPa | 0 mm | - | - | - |
| 1778003707 | 26.67° C | 46% | 1011 hPa | 0 mm | - | - | - |
| 1778003106 | 27.22° C | 46% | 1011 hPa | 0 mm | - | - | - |
| 1778002506 | 25° C | 49% | 1011 hPa | 0 mm | - | - | - |
| 1778001906 | 26.11° C | 49% | 1012 hPa | 0 mm | - | - | - |
| 1778001305 | 25° C | 49% | 1012 hPa | 0 mm | - | - | - |
| 1778000705 | 25° C | 49% | 1012 hPa | 0 mm | - | - | - |
| 1778000105 | 25° C | 49% | 1012 hPa | 0 mm | - | - | - |
| 1777999504 | 26.11° C | 49% | 1012 hPa | 0 mm | - | - | - |
| 1777998904 | 23.33° C | 55% | 1012 hPa | 0 mm | - | - | - |
| 1777998303 | 23.33° C | 55% | 1012 hPa | 0 mm | - | - | - |
| 1777997703 | 23.89° C | 55% | 1012 hPa | 0 mm | - | - | - |
| 1777997103 | 23.89° C | 55% | 1012 hPa | 0 mm | - | - | - |
| 1777996503 | 24.44° C | 55% | 1012 hPa | 0 mm | - | - | - |
| 1777995903 | 23.89° C | 54% | 1012 hPa | 0 mm | - | - | - |
* Rain latest hour (hover to see other rain measurements)
** Current wind speed in m/s (hover to see current wind gust speed)